createdAt,value
2022-12-29T00:00:23.937Z,-1.30
2022-12-29T00:02:51.286Z,-1.30
2022-12-29T00:05:18.560Z,-1.30
2022-12-29T00:07:45.774Z,-1.30
2022-12-29T00:10:13.037Z,-1.20
2022-12-29T00:12:58.795Z,-1.20
2022-12-29T00:15:38.293Z,-1.10
2022-12-29T00:18:06.474Z,-0.90
2022-12-29T00:20:55.164Z,-0.80
2022-12-29T00:23:41.488Z,-0.70
2022-12-29T00:26:41.572Z,-0.80
2022-12-29T00:29:28.461Z,-1.00
2022-12-29T00:32:14.370Z,-1.20
2022-12-29T00:35:00.112Z,-1.40
2022-12-29T00:37:47.472Z,-1.50
2022-12-29T00:40:33.562Z,-1.70
2022-12-29T00:43:19.260Z,-1.60
2022-12-29T00:45:46.459Z,-1.10
2022-12-29T00:48:13.661Z,-1.10
2022-12-29T00:50:41.439Z,-1.40
2022-12-29T00:53:08.607Z,-1.50
2022-12-29T00:55:39.441Z,-1.50
2022-12-29T00:58:06.735Z,-1.70
2022-12-29T01:00:34.590Z,-1.80
2022-12-29T01:03:02.034Z,-1.90
2022-12-29T01:05:29.366Z,-1.80
2022-12-29T01:07:56.617Z,-1.80
2022-12-29T01:10:23.808Z,-1.80
2022-12-29T01:12:51.929Z,-1.70
2022-12-29T01:15:19.194Z,-1.70
2022-12-29T01:17:46.511Z,-1.60
2022-12-29T01:20:14.398Z,-1.80
2022-12-29T01:22:43.540Z,-1.80
2022-12-29T01:25:10.862Z,-1.60
2022-12-29T01:27:38.073Z,-1.90
2022-12-29T01:30:06.119Z,-1.90
2022-12-29T01:32:33.407Z,-1.80
2022-12-29T01:35:00.615Z,-1.90
2022-12-29T01:37:28.035Z,-1.80
2022-12-29T01:39:55.273Z,-1.80
2022-12-29T01:42:27.271Z,-1.80
2022-12-29T01:44:57.676Z,-1.70
2022-12-29T01:47:32.016Z,-1.60
2022-12-29T01:50:10.727Z,-1.70
2022-12-29T01:52:43.371Z,-1.70
2022-12-29T01:55:12.123Z,-1.70
2022-12-29T01:57:44.387Z,-1.40
2022-12-29T02:00:14.756Z,-1.10
2022-12-29T02:02:52.885Z,-1.40
2022-12-29T02:05:43.283Z,-1.30
2022-12-29T02:08:12.380Z,-1.20
2022-12-29T02:10:41.777Z,-1.20
2022-12-29T02:13:09.007Z,-1.30
2022-12-29T02:16:03.797Z,-1.30
2022-12-29T02:18:56.777Z,-1.00
2022-12-29T02:21:35.967Z,-1.10
2022-12-29T02:24:21.219Z,-1.10
2022-12-29T02:27:06.981Z,-1.10
2022-12-29T02:29:40.667Z,-1.10
2022-12-29T02:32:28.893Z,-1.00
2022-12-29T02:35:33.607Z,-0.70
2022-12-29T02:38:13.185Z,-0.90
2022-12-29T02:40:43.375Z,-0.80
2022-12-29T02:43:20.359Z,-0.50
2022-12-29T02:46:05.029Z,-0.50
2022-12-29T02:48:46.626Z,-0.80
2022-12-29T02:51:30.873Z,-1.10
2022-12-29T02:54:17.639Z,-1.00
2022-12-29T02:56:45.538Z,-1.10
2022-12-29T02:59:13.542Z,-0.70
2022-12-29T03:02:18.864Z,-0.70
2022-12-29T03:04:55.469Z,-0.70
2022-12-29T03:07:40.784Z,-0.80
2022-12-29T03:10:29.750Z,-0.90
2022-12-29T03:13:32.727Z,-0.70
2022-12-29T03:16:29.126Z,-0.90
2022-12-29T03:19:15.999Z,-0.80
2022-12-29T03:22:27.376Z,-0.70
2022-12-29T03:25:05.931Z,-0.70
2022-12-29T03:27:47.073Z,-0.60
2022-12-29T03:30:15.273Z,-0.10
2022-12-29T03:32:53.019Z,-0.40
2022-12-29T03:35:24.326Z,-0.20
2022-12-29T03:38:03.369Z,0.20
2022-12-29T03:40:33.297Z,0.30
2022-12-29T03:43:00.937Z,0.10
2022-12-29T03:45:28.241Z,0.50
2022-12-29T03:47:55.449Z,0.40
2022-12-29T03:50:22.717Z,0.20
2022-12-29T03:52:49.975Z,0.40
2022-12-29T03:55:17.222Z,0.40
2022-12-29T03:57:45.766Z,0.80
2022-12-29T04:00:14.304Z,0.90
2022-12-29T04:02:41.664Z,0.70
2022-12-29T04:05:09.368Z,0.70
2022-12-29T04:07:36.559Z,1.30
2022-12-29T04:10:04.339Z,1.20
2022-12-29T04:12:31.633Z,1.40
2022-12-29T04:14:59.045Z,1.40
2022-12-29T04:17:26.292Z,1.20
2022-12-29T04:20:13.592Z,0.60
2022-12-29T04:22:41.601Z,0.20
2022-12-29T04:25:09.186Z,0.50
2022-12-29T04:27:36.589Z,0.40
2022-12-29T04:30:04.208Z,0.30
2022-12-29T04:32:31.437Z,0.10
2022-12-29T04:34:58.730Z,0.00
2022-12-29T04:37:26.001Z,0.00
2022-12-29T04:39:53.282Z,0.30
2022-12-29T04:42:20.570Z,0.40
2022-12-29T04:44:47.832Z,0.80
2022-12-29T04:47:15.206Z,0.90
2022-12-29T04:49:42.432Z,1.10
2022-12-29T04:52:09.674Z,0.90
2022-12-29T04:54:36.894Z,1.00
2022-12-29T04:57:04.268Z,1.20
2022-12-29T04:59:31.458Z,1.20
2022-12-29T05:01:58.826Z,1.20
2022-12-29T05:04:26.362Z,1.10
2022-12-29T05:06:53.606Z,1.10
2022-12-29T05:09:20.866Z,1.40
2022-12-29T05:11:48.126Z,1.40
2022-12-29T05:14:15.336Z,1.30
2022-12-29T05:16:42.589Z,1.60
2022-12-29T05:19:09.841Z,1.60
2022-12-29T05:21:37.028Z,1.40
2022-12-29T05:24:04.583Z,1.30
2022-12-29T05:26:31.832Z,1.10
2022-12-29T05:28:59.276Z,1.20
2022-12-29T05:31:26.720Z,1.00
2022-12-29T05:33:54.241Z,1.00
2022-12-29T05:36:21.469Z,0.70
2022-12-29T05:38:48.658Z,0.40
2022-12-29T05:41:15.989Z,0.30
2022-12-29T05:43:43.229Z,0.40
2022-12-29T05:46:11.480Z,0.30
2022-12-29T05:48:38.692Z,0.40
2022-12-29T05:51:06.073Z,0.50
2022-12-29T05:53:33.320Z,0.40
2022-12-29T05:56:00.888Z,0.20
2022-12-29T05:58:28.074Z,0.00
2022-12-29T06:00:55.310Z,0.10
2022-12-29T06:03:22.714Z,0.30
2022-12-29T06:05:49.987Z,0.30
2022-12-29T06:08:17.204Z,0.50
2022-12-29T06:10:44.839Z,0.30
2022-12-29T06:13:12.041Z,0.30
2022-12-29T06:15:39.247Z,0.30
2022-12-29T06:18:06.456Z,0.30
2022-12-29T06:20:33.665Z,0.60
2022-12-29T06:23:00.893Z,0.70
2022-12-29T06:25:28.119Z,1.40
2022-12-29T06:27:55.405Z,1.60
2022-12-29T06:30:22.579Z,0.70
2022-12-29T06:32:49.791Z,0.40
2022-12-29T06:35:17.009Z,0.10
2022-12-29T06:37:44.649Z,-0.20
2022-12-29T06:40:12.913Z,-0.20
2022-12-29T06:42:40.102Z,-0.40
2022-12-29T06:45:08.458Z,-0.40
2022-12-29T06:47:36.446Z,-0.40
2022-12-29T06:50:04.387Z,-0.50
2022-12-29T06:52:31.589Z,-0.60
2022-12-29T06:54:59.988Z,-0.70
2022-12-29T06:57:27.691Z,-0.80
2022-12-29T06:59:56.835Z,-0.60
2022-12-29T07:02:26.296Z,-0.20
2022-12-29T07:04:54.309Z,0.00
2022-12-29T07:07:22.165Z,-0.10
2022-12-29T07:09:49.391Z,-0.10
2022-12-29T07:12:16.653Z,-0.20
2022-12-29T07:14:44.588Z,-0.10
2022-12-29T07:17:12.024Z,0.10
2022-12-29T07:19:39.297Z,0.10
2022-12-29T07:22:06.862Z,0.30
2022-12-29T07:24:34.091Z,0.70
2022-12-29T07:27:01.468Z,1.20
2022-12-29T07:29:28.806Z,1.20
2022-12-29T07:31:56.093Z,1.30
2022-12-29T07:34:23.452Z,1.30
2022-12-29T07:36:50.699Z,1.50
2022-12-29T07:39:17.904Z,1.40
2022-12-29T07:41:45.101Z,1.30
2022-12-29T07:44:12.426Z,1.20
2022-12-29T07:46:54.054Z,1.20
2022-12-29T07:49:22.144Z,1.10
2022-12-29T07:51:49.340Z,1.20
2022-12-29T07:54:19.476Z,1.30
2022-12-29T07:56:47.092Z,1.50
2022-12-29T07:59:14.312Z,1.50
2022-12-29T08:01:41.733Z,1.50
2022-12-29T08:04:09.475Z,1.40
2022-12-29T08:06:38.764Z,1.50
2022-12-29T08:09:16.457Z,1.50
2022-12-29T08:11:46.957Z,1.50
2022-12-29T08:14:14.237Z,1.40
2022-12-29T08:16:41.487Z,1.80
2022-12-29T08:19:11.184Z,2.00
2022-12-29T08:21:38.379Z,2.00
2022-12-29T08:24:06.322Z,2.10
2022-12-29T08:26:33.752Z,1.90
2022-12-29T08:29:01.019Z,1.80
2022-12-29T08:31:28.351Z,1.80
2022-12-29T08:33:55.636Z,1.80
2022-12-29T08:36:23.008Z,1.80
2022-12-29T08:38:50.475Z,1.90
2022-12-29T08:41:17.740Z,2.00
2022-12-29T08:43:49.044Z,2.20
2022-12-29T08:46:16.976Z,2.80
2022-12-29T08:48:44.282Z,2.80
2022-12-29T08:51:11.484Z,2.90
2022-12-29T08:53:38.781Z,2.90
2022-12-29T08:56:06.569Z,3.10
2022-12-29T08:58:33.915Z,3.50
2022-12-29T09:01:01.399Z,3.50
2022-12-29T09:04:04.360Z,3.60
2022-12-29T09:06:18.189Z,3.90
2022-12-29T09:08:45.976Z,4.10
2022-12-29T09:11:16.461Z,4.20
2022-12-29T09:13:43.806Z,4.40
2022-12-29T09:16:11.761Z,4.30
2022-12-29T09:18:39.583Z,4.50
2022-12-29T09:21:07.695Z,4.50
2022-12-29T09:23:35.328Z,4.50
2022-12-29T09:26:03.331Z,4.60
2022-12-29T09:28:31.269Z,4.60
2022-12-29T09:30:59.780Z,4.50
2022-12-29T09:33:27.726Z,4.70
2022-12-29T09:35:57.305Z,4.90
2022-12-29T09:38:26.317Z,5.00
2022-12-29T09:40:57.092Z,5.00
2022-12-29T09:43:33.684Z,5.10
2022-12-29T09:46:20.741Z,5.20
2022-12-29T09:48:58.035Z,5.30
2022-12-29T09:51:26.208Z,5.40
2022-12-29T09:54:21.967Z,5.60
2022-12-29T09:56:50.449Z,5.80
2022-12-29T09:59:27.994Z,5.90
2022-12-29T10:02:20.996Z,5.90
2022-12-29T10:04:48.466Z,6.00
2022-12-29T10:07:43.672Z,6.20
2022-12-29T10:10:41.698Z,6.40
2022-12-29T10:13:27.209Z,6.40
2022-12-29T10:16:10.728Z,6.40
2022-12-29T10:19:06.089Z,6.60
2022-12-29T10:21:55.026Z,6.70
2022-12-29T10:24:24.226Z,6.80
2022-12-29T10:26:53.235Z,7.00
2022-12-29T10:29:25.406Z,7.10
2022-12-29T10:31:58.316Z,7.10
2022-12-29T10:34:38.269Z,7.20
2022-12-29T10:37:41.379Z,7.30
2022-12-29T10:40:24.507Z,7.50
2022-12-29T10:42:55.498Z,7.90
2022-12-29T10:45:26.591Z,8.10
2022-12-29T10:47:57.091Z,8.60
2022-12-29T10:50:26.670Z,8.70
2022-12-29T10:52:55.625Z,8.90
2022-12-29T10:55:39.208Z,9.00
2022-12-29T10:58:08.245Z,9.20
2022-12-29T11:00:35.560Z,9.30
2022-12-29T11:03:30.637Z,9.30
2022-12-29T11:06:08.241Z,9.50
2022-12-29T11:08:39.887Z,9.60
2022-12-29T11:11:10.471Z,9.80
2022-12-29T11:13:56.580Z,9.90
2022-12-29T11:16:35.824Z,10.00
2022-12-29T11:19:03.596Z,9.80
2022-12-29T11:21:43.544Z,9.80
2022-12-29T11:24:20.208Z,9.90
2022-12-29T11:26:49.769Z,9.90
2022-12-29T11:29:28.611Z,10.00
2022-12-29T11:32:00.127Z,10.00
2022-12-29T11:34:31.911Z,10.10
2022-12-29T11:37:07.375Z,10.20
2022-12-29T11:39:55.641Z,10.20
2022-12-29T11:42:35.003Z,10.20
2022-12-29T11:45:11.343Z,10.30
2022-12-29T11:47:38.669Z,10.30
2022-12-29T11:50:09.354Z,10.30
2022-12-29T11:52:40.733Z,10.30
2022-12-29T11:55:19.597Z,10.30
2022-12-29T11:57:47.354Z,10.30
2022-12-29T12:00:25.941Z,10.30
2022-12-29T12:02:59.824Z,10.30
2022-12-29T12:05:28.296Z,10.40
2022-12-29T12:08:20.438Z,10.50
2022-12-29T12:10:55.832Z,10.50
2022-12-29T12:13:38.347Z,10.50
2022-12-29T12:16:13.824Z,10.50
2022-12-29T12:18:48.974Z,10.50
2022-12-29T12:21:19.983Z,10.50
2022-12-29T12:24:19.265Z,10.50
2022-12-29T12:27:11.112Z,10.50
2022-12-29T12:30:02.113Z,10.50
2022-12-29T12:32:57.197Z,10.50
2022-12-29T12:35:51.057Z,10.50
2022-12-29T12:38:46.166Z,10.60
2022-12-29T12:41:22.451Z,10.50
2022-12-29T12:44:12.926Z,10.50
2022-12-29T12:46:58.658Z,10.50
2022-12-29T12:50:01.290Z,10.60
2022-12-29T12:52:43.041Z,10.70
2022-12-29T12:55:33.107Z,10.70
2022-12-29T12:58:12.195Z,10.70
2022-12-29T13:00:49.922Z,10.70
2022-12-29T13:03:52.529Z,10.60
2022-12-29T13:06:25.594Z,10.70
2022-12-29T13:09:13.995Z,10.70
2022-12-29T13:12:02.782Z,10.70
2022-12-29T13:14:48.401Z,10.70
2022-12-29T13:17:27.903Z,10.60
2022-12-29T13:20:18.552Z,10.60
2022-12-29T13:23:05.334Z,10.60
2022-12-29T13:25:46.741Z,10.60
2022-12-29T13:28:23.147Z,10.60
2022-12-29T13:30:55.136Z,10.60
2022-12-29T13:33:44.081Z,10.60
2022-12-29T13:36:28.108Z,10.60
2022-12-29T13:39:16.200Z,10.60
2022-12-29T13:41:54.686Z,10.60
2022-12-29T13:44:56.543Z,10.60
2022-12-29T13:47:41.448Z,10.60
2022-12-29T13:50:22.034Z,10.60
2022-12-29T13:53:07.827Z,10.50
2022-12-29T13:56:06.863Z,10.50
2022-12-29T13:58:50.944Z,10.50
2022-12-29T14:01:38.909Z,10.50
2022-12-29T14:04:21.677Z,10.40
2022-12-29T14:07:15.827Z,10.40
2022-12-29T14:09:49.021Z,10.40
2022-12-29T14:12:40.714Z,10.40
2022-12-29T14:15:23.513Z,10.40
2022-12-29T14:18:17.851Z,10.40
2022-12-29T14:20:59.226Z,10.20
2022-12-29T14:23:38.402Z,10.20
2022-12-29T14:26:09.334Z,10.20
2022-12-29T14:28:40.366Z,10.10
2022-12-29T14:31:19.596Z,10.00
2022-12-29T14:34:09.665Z,9.90
2022-12-29T14:36:39.712Z,9.80
2022-12-29T14:39:41.290Z,9.70
2022-12-29T14:42:11.331Z,9.50
2022-12-29T14:45:03.149Z,9.50
2022-12-29T14:47:41.207Z,9.30
2022-12-29T14:50:26.472Z,9.20
2022-12-29T14:53:03.956Z,9.20
2022-12-29T14:56:09.910Z,9.00
2022-12-29T14:58:55.182Z,8.90
2022-12-29T15:01:48.592Z,9.00
2022-12-29T15:04:31.230Z,8.90
2022-12-29T15:07:00.016Z,8.70
2022-12-29T15:09:54.935Z,8.90
2022-12-29T15:12:40.014Z,8.90
2022-12-29T15:15:37.967Z,8.80
2022-12-29T15:18:30.198Z,9.00
2022-12-29T15:21:03.127Z,8.90
2022-12-29T15:23:33.693Z,8.90
2022-12-29T15:26:07.140Z,8.90
2022-12-29T15:28:47.843Z,8.80
2022-12-29T15:31:29.963Z,8.60
2022-12-29T15:34:24.442Z,8.50
2022-12-29T15:36:52.105Z,8.30
2022-12-29T15:39:29.283Z,8.20
2022-12-29T15:42:21.453Z,8.10
2022-12-29T15:44:54.217Z,7.90
2022-12-29T15:47:30.623Z,8.00
2022-12-29T15:50:09.477Z,8.50
2022-12-29T15:52:40.184Z,8.80
2022-12-29T15:55:20.446Z,8.50
2022-12-29T15:57:47.633Z,8.40
2022-12-29T16:00:30.986Z,8.40
2022-12-29T16:03:01.109Z,8.40
2022-12-29T16:05:40.008Z,8.40
2022-12-29T16:08:38.828Z,8.50
2022-12-29T16:11:21.614Z,8.60
2022-12-29T16:13:50.120Z,8.60
2022-12-29T16:16:38.317Z,8.40
2022-12-29T16:19:18.962Z,8.10
2022-12-29T16:21:47.171Z,7.80
2022-12-29T16:24:17.990Z,7.40
2022-12-29T16:27:10.090Z,7.20
2022-12-29T16:29:38.117Z,7.40
2022-12-29T16:32:31.277Z,7.30
2022-12-29T16:35:17.449Z,7.00
2022-12-29T16:37:45.418Z,7.00
2022-12-29T16:40:30.311Z,6.90
2022-12-29T16:43:03.521Z,6.80
2022-12-29T16:45:45.729Z,6.80
2022-12-29T16:48:19.245Z,6.70
2022-12-29T16:50:46.973Z,6.60
2022-12-29T16:53:27.949Z,6.50
2022-12-29T16:55:56.746Z,6.30
2022-12-29T16:58:28.789Z,6.20
2022-12-29T17:00:58.413Z,6.00
2022-12-29T17:03:41.121Z,6.00
2022-12-29T17:06:22.082Z,6.00
2022-12-29T17:08:50.658Z,6.00
2022-12-29T17:11:59.344Z,5.70
2022-12-29T17:14:42.846Z,5.70
2022-12-29T17:17:31.412Z,5.70
2022-12-29T17:20:06.516Z,5.60
2022-12-29T17:22:34.226Z,5.40
2022-12-29T17:25:03.757Z,5.30
2022-12-29T17:27:31.079Z,5.10
2022-12-29T17:30:02.264Z,4.90
2022-12-29T17:32:29.994Z,4.70
2022-12-29T17:34:57.241Z,5.00
2022-12-29T17:37:36.569Z,4.80
2022-12-29T17:40:06.744Z,4.70
2022-12-29T17:42:39.117Z,4.60
2022-12-29T17:45:06.839Z,4.60
2022-12-29T17:47:34.091Z,4.80
2022-12-29T17:50:01.365Z,4.80
2022-12-29T17:52:28.585Z,4.50
2022-12-29T17:54:56.564Z,4.70
2022-12-29T17:57:23.818Z,4.70
2022-12-29T17:59:51.279Z,4.70
2022-12-29T18:02:24.712Z,5.00
2022-12-29T18:04:52.360Z,4.60
2022-12-29T18:07:19.681Z,4.70
2022-12-29T18:09:46.928Z,4.90
2022-12-29T18:12:26.298Z,4.90
2022-12-29T18:14:53.575Z,4.60
2022-12-29T18:17:20.794Z,4.50
2022-12-29T18:19:48.041Z,4.50
2022-12-29T18:22:15.361Z,4.70
2022-12-29T18:24:42.554Z,4.80
2022-12-29T18:27:15.842Z,5.10
2022-12-29T18:29:43.214Z,5.10
2022-12-29T18:32:13.838Z,4.80
2022-12-29T18:34:42.403Z,4.90
2022-12-29T18:37:10.913Z,4.50
2022-12-29T18:39:38.821Z,4.40
2022-12-29T18:42:06.996Z,4.40
2022-12-29T18:44:34.585Z,4.20
2022-12-29T18:47:01.906Z,4.10
2022-12-29T18:49:29.249Z,4.00
2022-12-29T18:51:56.610Z,4.00
2022-12-29T18:54:33.992Z,3.60
2022-12-29T18:57:01.473Z,3.70
2022-12-29T18:59:28.740Z,3.90
2022-12-29T19:01:56.034Z,3.70
2022-12-29T19:04:23.444Z,4.20
2022-12-29T19:06:51.448Z,4.30
2022-12-29T19:09:18.901Z,4.10
2022-12-29T19:11:46.191Z,4.00
2022-12-29T19:14:19.503Z,4.20
2022-12-29T19:16:47.224Z,4.00
2022-12-29T19:19:16.296Z,3.70
2022-12-29T19:21:44.134Z,3.80
2022-12-29T19:24:11.559Z,4.10
2022-12-29T19:26:40.641Z,4.00
2022-12-29T19:29:14.545Z,4.20
2022-12-29T19:31:42.305Z,4.50
2022-12-29T19:34:13.206Z,4.30
2022-12-29T19:36:41.002Z,4.20
2022-12-29T19:39:08.237Z,4.30
2022-12-29T19:41:35.547Z,4.00
2022-12-29T19:44:03.012Z,4.00
2022-12-29T19:46:30.323Z,3.60
2022-12-29T19:48:59.081Z,3.70
2022-12-29T19:51:27.491Z,3.90
2022-12-29T19:53:55.470Z,4.10
2022-12-29T19:56:22.755Z,4.30
2022-12-29T19:58:50.902Z,4.40
2022-12-29T20:01:21.230Z,4.30
2022-12-29T20:03:49.567Z,4.00
2022-12-29T20:06:17.509Z,3.80
2022-12-29T20:08:45.105Z,3.80
2022-12-29T20:11:15.624Z,3.70
2022-12-29T20:13:43.867Z,3.60
2022-12-29T20:16:19.764Z,3.60
2022-12-29T20:18:47.892Z,3.60
2022-12-29T20:21:18.199Z,3.60
2022-12-29T20:23:46.120Z,3.80
2022-12-29T20:26:19.725Z,4.20
2022-12-29T20:28:47.631Z,3.90
2022-12-29T20:31:23.420Z,3.70
2022-12-29T20:33:51.071Z,3.60
2022-12-29T20:36:24.762Z,3.90
2022-12-29T20:38:52.950Z,3.80
2022-12-29T20:41:21.107Z,3.80
2022-12-29T20:43:48.917Z,3.70
2022-12-29T20:46:20.784Z,3.80
2022-12-29T20:48:49.471Z,4.00
2022-12-29T20:51:17.057Z,4.00
2022-12-29T20:53:44.494Z,3.80
2022-12-29T20:56:16.013Z,3.50
2022-12-29T20:59:08.500Z,3.60
2022-12-29T21:01:30.848Z,3.60
2022-12-29T21:03:58.315Z,3.50
2022-12-29T21:06:25.893Z,3.70
2022-12-29T21:08:55.167Z,3.50
2022-12-29T21:11:23.210Z,3.30
2022-12-29T21:13:50.611Z,3.40
2022-12-29T21:16:21.118Z,3.80
2022-12-29T21:18:49.343Z,3.60
2022-12-29T21:21:19.442Z,3.70
2022-12-29T21:23:46.809Z,3.60
2022-12-29T21:26:17.293Z,3.80
2022-12-29T21:28:46.239Z,3.30
2022-12-29T21:31:22.770Z,3.20
2022-12-29T21:33:50.419Z,3.20
2022-12-29T21:36:17.680Z,3.40
2022-12-29T21:38:45.028Z,3.20
2022-12-29T21:41:17.572Z,3.50
2022-12-29T21:44:04.513Z,3.20
2022-12-29T21:46:32.655Z,3.00
2022-12-29T21:49:00.055Z,2.90
2022-12-29T21:51:45.764Z,3.10
2022-12-29T21:54:31.727Z,3.30
2022-12-29T21:56:59.129Z,3.20
2022-12-29T21:59:44.974Z,3.60
2022-12-29T22:02:42.007Z,3.70
2022-12-29T22:05:33.717Z,3.10
2022-12-29T22:08:21.171Z,3.30
2022-12-29T22:11:07.551Z,3.00
2022-12-29T22:13:38.111Z,3.00
2022-12-29T22:16:07.723Z,3.00
2022-12-29T22:18:35.314Z,4.10
2022-12-29T22:21:10.615Z,4.70
2022-12-29T22:23:38.421Z,6.20
2022-12-29T22:26:08.561Z,6.30
2022-12-29T22:28:40.499Z,7.40
2022-12-29T22:31:38.399Z,8.10
2022-12-29T22:34:05.767Z,8.50
2022-12-29T22:36:33.512Z,8.50
2022-12-29T22:39:00.770Z,8.60
2022-12-29T22:41:28.048Z,8.90
2022-12-29T22:43:55.403Z,9.00
2022-12-29T22:46:23.024Z,8.70
2022-12-29T22:48:50.350Z,8.50
2022-12-29T22:51:17.557Z,8.20
2022-12-29T22:53:45.601Z,8.10
2022-12-29T22:56:13.825Z,7.90
2022-12-29T22:58:42.927Z,7.80
2022-12-29T23:01:11.576Z,7.50
2022-12-29T23:03:39.148Z,7.00
2022-12-29T23:06:08.660Z,6.70
2022-12-29T23:08:38.219Z,6.50
2022-12-29T23:11:07.995Z,6.10
2022-12-29T23:13:35.580Z,6.00
2022-12-29T23:16:03.241Z,5.70
2022-12-29T23:18:30.623Z,5.60
2022-12-29T23:20:58.115Z,5.40
2022-12-29T23:23:48.763Z,5.20
2022-12-29T23:26:18.041Z,5.00
2022-12-29T23:28:45.525Z,5.00
2022-12-29T23:31:13.383Z,4.90
2022-12-29T23:33:41.100Z,4.90
2022-12-29T23:36:09.005Z,4.90
2022-12-29T23:38:36.236Z,4.70
2022-12-29T23:41:03.563Z,4.50
2022-12-29T23:43:30.794Z,4.40
2022-12-29T23:45:58.066Z,4.20
2022-12-29T23:48:25.258Z,4.10
2022-12-29T23:50:52.496Z,3.70
2022-12-29T23:53:19.721Z,3.60
2022-12-29T23:55:53.518Z,3.70
2022-12-29T23:58:20.855Z,3.60
